sensor_id;sensor_type;location;lat;lon;timestamp;pressure;altitude;pressure_sealevel;temperature;humidity
49393;BME280;35268;42.642;23.308;2023-12-20T00:01:23;94255.69;;;1.12;80.74
49393;BME280;35268;42.642;23.308;2023-12-20T00:03:48;94260.94;;;1.12;80.56
49393;BME280;35268;42.642;23.308;2023-12-20T00:06:14;94250.94;;;1.09;80.91
49393;BME280;35268;42.642;23.308;2023-12-20T00:08:39;94240.69;;;1.07;80.97
49393;BME280;35268;42.642;23.308;2023-12-20T00:11:05;94245.16;;;1.07;80.99
49393;BME280;35268;42.642;23.308;2023-12-20T00:13:30;94244.66;;;1.10;80.49
49393;BME280;35268;42.642;23.308;2023-12-20T00:15:56;94237.28;;;1.07;80.71
49393;BME280;35268;42.642;23.308;2023-12-20T00:18:21;94240.44;;;1.09;80.81
49393;BME280;35268;42.642;23.308;2023-12-20T00:20:47;94226.00;;;1.06;80.98
49393;BME280;35268;42.642;23.308;2023-12-20T00:23:12;94228.84;;;1.05;81.24
49393;BME280;35268;42.642;23.308;2023-12-20T00:25:37;94229.88;;;1.04;81.37
49393;BME280;35268;42.642;23.308;2023-12-20T00:28:03;94228.84;;;1.05;81.00
49393;BME280;35268;42.642;23.308;2023-12-20T00:30:28;94219.69;;;1.07;80.95
49393;BME280;35268;42.642;23.308;2023-12-20T00:32:54;94223.06;;;1.03;80.78
49393;BME280;35268;42.642;23.308;2023-12-20T00:35:20;94221.94;;;0.98;80.31
49393;BME280;35268;42.642;23.308;2023-12-20T00:37:45;94205.88;;;0.95;79.92
49393;BME280;35268;42.642;23.308;2023-12-20T00:40:11;94212.97;;;0.94;80.02
49393;BME280;35268;42.642;23.308;2023-12-20T00:42:36;94204.56;;;0.92;79.76
49393;BME280;35268;42.642;23.308;2023-12-20T00:45:02;94199.50;;;0.86;79.84
49393;BME280;35268;42.642;23.308;2023-12-20T00:47:30;94202.13;;;0.86;79.63
49393;BME280;35268;42.642;23.308;2023-12-20T00:49:55;94201.84;;;0.87;79.17
49393;BME280;35268;42.642;23.308;2023-12-20T00:52:20;94196.59;;;0.87;78.89
49393;BME280;35268;42.642;23.308;2023-12-20T00:54:48;94200.75;;;0.83;78.93
49393;BME280;35268;42.642;23.308;2023-12-20T00:57:13;94196.00;;;0.80;78.73
49393;BME280;35268;42.642;23.308;2023-12-20T00:59:39;94197.28;;;0.77;78.72
49393;BME280;35268;42.642;23.308;2023-12-20T01:02:04;94190.13;;;0.73;78.73
49393;BME280;35268;42.642;23.308;2023-12-20T01:04:45;94173.84;;;0.71;78.88
49393;BME280;35268;42.642;23.308;2023-12-20T01:07:10;94179.34;;;0.69;78.64
49393;BME280;35268;42.642;23.308;2023-12-20T01:09:35;94180.13;;;0.70;78.80
49393;BME280;35268;42.642;23.308;2023-12-20T01:12:01;94176.72;;;0.69;78.64
49393;BME280;35268;42.642;23.308;2023-12-20T01:14:26;94176.97;;;0.68;78.67
49393;BME280;35268;42.642;23.308;2023-12-20T01:16:51;94179.28;;;0.64;78.78
49393;BME280;35268;42.642;23.308;2023-12-20T01:19:17;94166.16;;;0.64;78.67
49393;BME280;35268;42.642;23.308;2023-12-20T01:21:42;94163.75;;;0.63;78.87
49393;BME280;35268;42.642;23.308;2023-12-20T01:24:08;94159.81;;;0.60;79.03
49393;BME280;35268;42.642;23.308;2023-12-20T01:26:33;94160.59;;;0.60;78.82
49393;BME280;35268;42.642;23.308;2023-12-20T01:28:58;94156.94;;;0.62;78.40
49393;BME280;35268;42.642;23.308;2023-12-20T01:31:24;94151.38;;;0.58;78.59
49393;BME280;35268;42.642;23.308;2023-12-20T01:33:49;94146.38;;;0.56;78.79
49393;BME280;35268;42.642;23.308;2023-12-20T01:36:14;94139.78;;;0.54;78.98
49393;BME280;35268;42.642;23.308;2023-12-20T01:38:40;94137.72;;;0.56;79.00
49393;BME280;35268;42.642;23.308;2023-12-20T01:41:05;94137.97;;;0.54;79.39
49393;BME280;35268;42.642;23.308;2023-12-20T01:43:30;94130.88;;;0.55;79.58
49393;BME280;35268;42.642;23.308;2023-12-20T01:45:57;94136.94;;;0.55;79.34
49393;BME280;35268;42.642;23.308;2023-12-20T01:48:24;94136.44;;;0.58;80.04
49393;BME280;35268;42.642;23.308;2023-12-20T01:50:50;94120.16;;;0.56;80.19
49393;BME280;35268;42.642;23.308;2023-12-20T01:53:16;94121.97;;;0.56;80.47
49393;BME280;35268;42.642;23.308;2023-12-20T01:55:43;94112.50;;;0.55;80.69
49393;BME280;35268;42.642;23.308;2023-12-20T01:58:09;94113.31;;;0.55;80.55
49393;BME280;35268;42.642;23.308;2023-12-20T02:00:36;94114.34;;;0.54;80.75
49393;BME280;35268;42.642;23.308;2023-12-20T02:03:02;94110.44;;;0.57;80.89
49393;BME280;35268;42.642;23.308;2023-12-20T02:05:32;94114.66;;;0.58;80.77
49393;BME280;35268;42.642;23.308;2023-12-20T02:07:57;94100.50;;;0.59;80.33
49393;BME280;35268;42.642;23.308;2023-12-20T02:10:24;94094.97;;;0.55;80.40
49393;BME280;35268;42.642;23.308;2023-12-20T02:12:49;94103.84;;;0.54;80.82
49393;BME280;35268;42.642;23.308;2023-12-20T02:15:15;94098.63;;;0.54;80.88
49393;BME280;35268;42.642;23.308;2023-12-20T02:17:40;94091.16;;;0.46;80.90
49393;BME280;35268;42.642;23.308;2023-12-20T02:20:06;94093.78;;;0.46;81.12
49393;BME280;35268;42.642;23.308;2023-12-20T02:22:32;94089.09;;;0.48;80.94
49393;BME280;35268;42.642;23.308;2023-12-20T02:24:57;94090.16;;;0.47;81.12
49393;BME280;35268;42.642;23.308;2023-12-20T02:27:23;94085.69;;;0.48;81.57
49393;BME280;35268;42.642;23.308;2023-12-20T02:29:49;94081.47;;;0.47;81.61
49393;BME280;35268;42.642;23.308;2023-12-20T02:32:15;94077.50;;;0.44;81.06
49393;BME280;35268;42.642;23.308;2023-12-20T02:34:41;94071.16;;;0.40;81.25
49393;BME280;35268;42.642;23.308;2023-12-20T02:37:07;94069.88;;;0.43;80.52
49393;BME280;35268;42.642;23.308;2023-12-20T02:39:32;94069.59;;;0.39;80.73
49393;BME280;35268;42.642;23.308;2023-12-20T02:41:58;94063.25;;;0.35;80.88
49393;BME280;35268;42.642;23.308;2023-12-20T02:44:24;94060.13;;;0.38;80.23
49393;BME280;35268;42.642;23.308;2023-12-20T02:46:49;94064.50;;;0.32;80.46
49393;BME280;35268;42.642;23.308;2023-12-20T02:49:15;94061.34;;;0.30;80.51
49393;BME280;35268;42.642;23.308;2023-12-20T02:51:40;94060.56;;;0.30;80.77
49393;BME280;35268;42.642;23.308;2023-12-20T02:54:05;94055.31;;;0.30;80.77
49393;BME280;35268;42.642;23.308;2023-12-20T02:56:34;94061.63;;;0.29;80.40
49393;BME280;35268;42.642;23.308;2023-12-20T02:58:59;94062.16;;;0.31;80.52
49393;BME280;35268;42.642;23.308;2023-12-20T03:01:24;94067.88;;;0.28;81.49
49393;BME280;35268;42.642;23.308;2023-12-20T03:03:50;94063.84;;;0.20;81.87
49393;BME280;35268;42.642;23.308;2023-12-20T03:06:17;94055.69;;;0.16;82.36
49393;BME280;35268;42.642;23.308;2023-12-20T03:08:43;94053.06;;;0.16;82.54
49393;BME280;35268;42.642;23.308;2023-12-20T03:11:09;94051.00;;;0.18;82.20
49393;BME280;35268;42.642;23.308;2023-12-20T03:13:34;94056.53;;;0.22;81.75
49393;BME280;35268;42.642;23.308;2023-12-20T03:15:59;94050.72;;;0.20;82.04
49393;BME280;35268;42.642;23.308;2023-12-20T03:18:25;94054.28;;;0.09;82.73
49393;BME280;35268;42.642;23.308;2023-12-20T03:20:50;94061.09;;;0.10;82.92
49393;BME280;35268;42.642;23.308;2023-12-20T03:23:16;94061.09;;;0.10;83.04
49393;BME280;35268;42.642;23.308;2023-12-20T03:25:41;94046.19;;;0.10;82.50
49393;BME280;35268;42.642;23.308;2023-12-20T03:28:06;94039.88;;;0.11;82.58
49393;BME280;35268;42.642;23.308;2023-12-20T03:30:32;94034.16;;;0.14;82.14
49393;BME280;35268;42.642;23.308;2023-12-20T03:32:57;94039.88;;;0.11;82.34
49393;BME280;35268;42.642;23.308;2023-12-20T03:35:22;94042.50;;;0.11;82.13
49393;BME280;35268;42.642;23.308;2023-12-20T03:37:48;94037.75;;;0.08;82.18
49393;BME280;35268;42.642;23.308;2023-12-20T03:40:13;94031.72;;;0.08;81.69
49393;BME280;35268;42.642;23.308;2023-12-20T03:42:39;94034.59;;;0.06;81.46
49393;BME280;35268;42.642;23.308;2023-12-20T03:45:04;94040.31;;;0.03;81.17
49393;BME280;35268;42.642;23.308;2023-12-20T03:47:30;94038.75;;;0.02;80.62
49393;BME280;35268;42.642;23.308;2023-12-20T03:49:55;94022.38;;;-0.05;80.80
49393;BME280;35268;42.642;23.308;2023-12-20T03:52:20;94031.03;;;-0.05;80.69
49393;BME280;35268;42.642;23.308;2023-12-20T03:54:46;94027.53;;;-0.10;80.74
49393;BME280;35268;42.642;23.308;2023-12-20T03:57:11;94031.44;;;-0.13;80.72
49393;BME280;35268;42.642;23.308;2023-12-20T03:59:38;94035.91;;;-0.13;81.01
49393;BME280;35268;42.642;23.308;2023-12-20T04:02:03;94031.94;;;-0.16;80.92
49393;BME280;35268;42.642;23.308;2023-12-20T04:04:29;94022.72;;;-0.18;81.03
49393;BME280;35268;42.642;23.308;2023-12-20T04:06:55;94023.03;;;-0.15;80.91
49393;BME280;35268;42.642;23.308;2023-12-20T04:09:20;94017.00;;;-0.15;81.21
49393;BME280;35268;42.642;23.308;2023-12-20T04:11:46;94011.78;;;-0.15;81.44
49393;BME280;35268;42.642;23.308;2023-12-20T04:14:11;94020.09;;;-0.18;81.53
49393;BME280;35268;42.642;23.308;2023-12-20T04:16:36;94003.38;;;-0.17;81.63
49393;BME280;35268;42.642;23.308;2023-12-20T04:19:02;94013.06;;;-0.18;81.77
49393;BME280;35268;42.642;23.308;2023-12-20T04:21:27;94006.72;;;-0.22;81.84
49393;BME280;35268;42.642;23.308;2023-12-20T04:23:53;94011.13;;;-0.23;82.36
49393;BME280;35268;42.642;23.308;2023-12-20T04:26:18;93996.47;;;-0.24;82.21
49393;BME280;35268;42.642;23.308;2023-12-20T04:28:43;94003.28;;;-0.23;82.09
49393;BME280;35268;42.642;23.308;2023-12-20T04:31:09;93998.31;;;-0.24;81.94
49393;BME280;35268;42.642;23.308;2023-12-20T04:33:34;93989.91;;;-0.26;81.79
49393;BME280;35268;42.642;23.308;2023-12-20T04:35:59;93985.13;;;-0.29;81.71
49393;BME280;35268;42.642;23.308;2023-12-20T04:38:25;93981.50;;;-0.28;81.72
49393;BME280;35268;42.642;23.308;2023-12-20T04:40:51;93970.19;;;-0.29;81.64
49393;BME280;35268;42.642;23.308;2023-12-20T04:43:17;93980.69;;;-0.29;81.76
49393;BME280;35268;42.642;23.308;2023-12-20T04:45:42;93977.50;;;-0.31;81.48
49393;BME280;35268;42.642;23.308;2023-12-20T04:48:08;93975.97;;;-0.27;81.30
49393;BME280;35268;42.642;23.308;2023-12-20T04:50:33;93983.28;;;-0.29;81.23
49393;BME280;35268;42.642;23.308;2023-12-20T04:52:58;93967.56;;;-0.29;80.44
49393;BME280;35268;42.642;23.308;2023-12-20T04:55:24;93988.53;;;-0.29;81.37
49393;BME280;35268;42.642;23.308;2023-12-20T04:57:49;93975.69;;;-0.30;81.33
49393;BME280;35268;42.642;23.308;2023-12-20T05:00:15;93972.25;;;-0.31;81.77
49393;BME280;35268;42.642;23.308;2023-12-20T05:02:41;93975.97;;;-0.27;81.64
49393;BME280;35268;42.642;23.308;2023-12-20T05:05:07;93977.03;;;-0.28;81.45
49393;BME280;35268;42.642;23.308;2023-12-20T05:07:32;93973.88;;;-0.30;81.15
49393;BME280;35268;42.642;23.308;2023-12-20T05:09:58;93969.66;;;-0.31;81.36
49393;BME280;35268;42.642;23.308;2023-12-20T05:12:24;93974.66;;;-0.29;81.37
49393;BME280;35268;42.642;23.308;2023-12-20T05:14:49;93959.47;;;-0.27;81.17
49393;BME280;35268;42.642;23.308;2023-12-20T05:17:15;93974.97;;;-0.26;80.87
49393;BME280;35268;42.642;23.308;2023-12-20T05:19:40;93961.31;;;-0.28;80.47
49393;BME280;35268;42.642;23.308;2023-12-20T05:22:05;93967.53;;;-0.34;80.39
49393;BME280;35268;42.642;23.308;2023-12-20T05:24:31;93961.50;;;-0.34;80.64
49393;BME280;35268;42.642;23.308;2023-12-20T05:26:56;93955.22;;;-0.33;80.52
49393;BME280;35268;42.642;23.308;2023-12-20T05:29:22;93954.44;;;-0.34;80.03
49393;BME280;35268;42.642;23.308;2023-12-20T05:31:47;93953.34;;;-0.38;80.40
49393;BME280;35268;42.642;23.308;2023-12-20T05:34:12;93936.44;;;-0.47;80.58
49393;BME280;35268;42.642;23.308;2023-12-20T05:36:38;93948.44;;;-0.51;81.01
49393;BME280;35268;42.642;23.308;2023-12-20T05:39:04;93942.59;;;-0.58;81.82
49393;BME280;35268;42.642;23.308;2023-12-20T05:41:30;93946.41;;;-0.66;82.49
49393;BME280;35268;42.642;23.308;2023-12-20T05:43:56;93943.78;;;-0.66;82.23
49393;BME280;35268;42.642;23.308;2023-12-20T05:46:23;93943.56;;;-0.65;82.34
49393;BME280;35268;42.642;23.308;2023-12-20T05:48:48;93956.63;;;-0.65;81.84
49393;BME280;35268;42.642;23.308;2023-12-20T05:51:14;93948.94;;;-0.71;81.44
49393;BME280;35268;42.642;23.308;2023-12-20T05:53:39;93949.34;;;-0.79;82.03
49393;BME280;35268;42.642;23.308;2023-12-20T05:56:05;93936.75;;;-0.83;82.32
49393;BME280;35268;42.642;23.308;2023-12-20T05:58:32;93922.88;;;-0.83;82.44
49393;BME280;35268;42.642;23.308;2023-12-20T06:00:57;93936.03;;;-0.78;82.32
49393;BME280;35268;42.642;23.308;2023-12-20T06:03:23;93921.84;;;-0.82;81.96
49393;BME280;35268;42.642;23.308;2023-12-20T06:05:48;93933.91;;;-0.81;82.16
49393;BME280;35268;42.642;23.308;2023-12-20T06:08:14;93921.38;;;-0.79;82.94
49393;BME280;35268;42.642;23.308;2023-12-20T06:10:39;93912.88;;;-0.86;83.29
49393;BME280;35268;42.642;23.308;2023-12-20T06:13:05;93929.06;;;-0.89;83.69
49393;BME280;35268;42.642;23.308;2023-12-20T06:15:32;93926.88;;;-0.97;82.59
49393;BME280;35268;42.642;23.308;2023-12-20T06:17:57;93928.78;;;-1.10;82.72
49393;BME280;35268;42.642;23.308;2023-12-20T06:20:23;93941.13;;;-1.22;82.85
49393;BME280;35268;42.642;23.308;2023-12-20T06:22:48;93935.25;;;-1.29;83.24
49393;BME280;35268;42.642;23.308;2023-12-20T06:25:13;93942.22;;;-1.35;84.32
49393;BME280;35268;42.642;23.308;2023-12-20T06:27:39;93933.50;;;-1.41;85.40
49393;BME280;35268;42.642;23.308;2023-12-20T06:30:06;93936.22;;;-1.35;85.84
49393;BME280;35268;42.642;23.308;2023-12-20T06:32:32;93938.97;;;-1.25;86.27
49393;BME280;35268;42.642;23.308;2023-12-20T06:34:57;93933.59;;;-1.18;86.47
49393;BME280;35268;42.642;23.308;2023-12-20T06:37:23;93937.63;;;-1.11;85.18
49393;BME280;35268;42.642;23.308;2023-12-20T06:39:48;93930.84;;;-1.12;84.70
49393;BME280;35268;42.642;23.308;2023-12-20T06:42:13;93927.72;;;-1.09;84.87
49393;BME280;35268;42.642;23.308;2023-12-20T06:44:39;93918.47;;;-0.99;84.97
49393;BME280;35268;42.642;23.308;2023-12-20T06:47:05;93929.00;;;-0.94;84.63
49393;BME280;35268;42.642;23.308;2023-12-20T06:49:40;93910.22;;;-0.91;83.74
49393;BME280;35268;42.642;23.308;2023-12-20T06:52:05;93920.69;;;-0.91;83.91
49393;BME280;35268;42.642;23.308;2023-12-20T06:54:31;93918.59;;;-0.89;83.79
49393;BME280;35268;42.642;23.308;2023-12-20T06:56:56;93912.28;;;-0.93;83.91
49393;BME280;35268;42.642;23.308;2023-12-20T06:59:21;93903.47;;;-0.87;83.51
49393;BME280;35268;42.642;23.308;2023-12-20T07:01:48;93911.00;;;-0.91;82.85
49393;BME280;35268;42.642;23.308;2023-12-20T07:04:14;93915.91;;;-0.94;83.03
49393;BME280;35268;42.642;23.308;2023-12-20T07:06:39;93908.38;;;-0.91;83.87
49393;BME280;35268;42.642;23.308;2023-12-20T07:09:05;93902.97;;;-0.84;83.62
49393;BME280;35268;42.642;23.308;2023-12-20T07:11:30;93908.75;;;-0.82;83.82
49393;BME280;35268;42.642;23.308;2023-12-20T07:13:55;93907.72;;;-0.81;83.94
49393;BME280;35268;42.642;23.308;2023-12-20T07:16:21;93894.22;;;-0.73;83.74
49393;BME280;35268;42.642;23.308;2023-12-20T07:18:47;93895.88;;;-0.67;82.96
49393;BME280;35268;42.642;23.308;2023-12-20T07:21:13;93896.97;;;-0.63;83.14
49393;BME280;35268;42.642;23.308;2023-12-20T07:23:38;93907.09;;;-0.49;83.17
49393;BME280;35268;42.642;23.308;2023-12-20T07:26:03;93886.75;;;-0.42;83.66
49393;BME280;35268;42.642;23.308;2023-12-20T07:28:29;93889.25;;;-0.30;83.61
49393;BME280;35268;42.642;23.308;2023-12-20T07:30:55;93884.16;;;-0.42;83.96
49393;BME280;35268;42.642;23.308;2023-12-20T07:33:20;93881.44;;;-0.25;83.86
49393;BME280;35268;42.642;23.308;2023-12-20T07:35:45;93882.84;;;-0.17;83.68
49393;BME280;35268;42.642;23.308;2023-12-20T07:38:11;93882.44;;;-0.04;83.56
49393;BME280;35268;42.642;23.308;2023-12-20T07:40:37;93874.97;;;0.05;83.44
49393;BME280;35268;42.642;23.308;2023-12-20T07:43:03;93879.53;;;0.14;82.41
49393;BME280;35268;42.642;23.308;2023-12-20T07:45:28;93886.94;;;0.23;82.09
49393;BME280;35268;42.642;23.308;2023-12-20T07:47:54;93891.75;;;0.31;80.36
49393;BME280;35268;42.642;23.308;2023-12-20T07:50:19;93879.63;;;0.25;80.46
49393;BME280;35268;42.642;23.308;2023-12-20T07:52:45;93884.06;;;0.24;80.31
49393;BME280;35268;42.642;23.308;2023-12-20T07:55:10;93881.69;;;0.23;80.29
49393;BME280;35268;42.642;23.308;2023-12-20T07:57:36;93882.47;;;0.23;80.34
49393;BME280;35268;42.642;23.308;2023-12-20T08:00:01;93873.09;;;0.27;80.78
49393;BME280;35268;42.642;23.308;2023-12-20T08:02:28;93889.91;;;0.31;80.70
49393;BME280;35268;42.642;23.308;2023-12-20T08:04:54;93863.97;;;0.35;80.93
49393;BME280;35268;42.642;23.308;2023-12-20T08:07:19;93871.03;;;0.34;81.34
49393;BME280;35268;42.642;23.308;2023-12-20T08:09:45;93866.41;;;0.47;81.37
49393;BME280;35268;42.642;23.308;2023-12-20T08:12:10;93863.09;;;0.56;81.16
49393;BME280;35268;42.642;23.308;2023-12-20T08:14:36;93862.63;;;0.65;80.90
49393;BME280;35268;42.642;23.308;2023-12-20T08:17:02;93853.81;;;0.76;80.69
49393;BME280;35268;42.642;23.308;2023-12-20T08:19:28;93870.66;;;0.85;80.22
49393;BME280;35268;42.642;23.308;2023-12-20T08:21:53;93848.63;;;0.86;79.76
49393;BME280;35268;42.642;23.308;2023-12-20T08:24:18;93865.47;;;0.90;80.24
49393;BME280;35268;42.642;23.308;2023-12-20T08:26:44;93862.84;;;0.90;79.57
49393;BME280;35268;42.642;23.308;2023-12-20T08:29:13;93861.78;;;0.91;79.67
49393;BME280;35268;42.642;23.308;2023-12-20T08:31:39;93827.56;;;0.76;80.31
49393;BME280;35268;42.642;23.308;2023-12-20T08:34:04;93860.13;;;0.80;81.37
49393;BME280;35268;42.642;23.308;2023-12-20T08:36:29;93841.19;;;0.73;80.95
49393;BME280;35268;42.642;23.308;2023-12-20T08:38:55;93839.41;;;0.78;81.79
49393;BME280;35268;42.642;23.308;2023-12-20T08:41:20;93831.56;;;0.84;80.79
49393;BME280;35268;42.642;23.308;2023-12-20T08:43:46;93823.47;;;0.90;80.14
49393;BME280;35268;42.642;23.308;2023-12-20T08:46:11;93830.81;;;0.93;80.23
49393;BME280;35268;42.642;23.308;2023-12-20T08:48:37;93831.94;;;1.03;80.21
49393;BME280;35268;42.642;23.308;2023-12-20T08:51:04;93825.38;;;1.05;79.85
49393;BME280;35268;42.642;23.308;2023-12-20T08:53:29;93832.19;;;1.01;80.48
49393;BME280;35268;42.642;23.308;2023-12-20T08:55:55;93820.72;;;1.12;80.42
49393;BME280;35268;42.642;23.308;2023-12-20T08:58:20;93814.88;;;1.05;81.35
49393;BME280;35268;42.642;23.308;2023-12-20T09:00:45;93817.31;;;1.22;80.35
49393;BME280;35268;42.642;23.308;2023-12-20T09:03:11;93813.69;;;1.28;80.26
49393;BME280;35268;42.642;23.308;2023-12-20T09:05:36;93805.25;;;1.26;79.92
49393;BME280;35268;42.642;23.308;2023-12-20T09:08:02;93800.28;;;1.30;80.04
49393;BME280;35268;42.642;23.308;2023-12-20T09:10:27;93799.03;;;1.37;80.22
49393;BME280;35268;42.642;23.308;2023-12-20T09:12:53;93773.84;;;1.47;79.62
49393;BME280;35268;42.642;23.308;2023-12-20T09:15:26;93771.22;;;1.52;79.89
49393;BME280;35268;42.642;23.308;2023-12-20T09:17:53;93762.84;;;1.60;80.03
49393;BME280;35268;42.642;23.308;2023-12-20T09:20:18;93750.53;;;1.76;79.35
49393;BME280;35268;42.642;23.308;2023-12-20T09:22:44;93737.69;;;1.90;79.52
49393;BME280;35268;42.642;23.308;2023-12-20T09:25:10;93735.84;;;2.06;78.62
49393;BME280;35268;42.642;23.308;2023-12-20T09:27:36;93739.78;;;2.13;78.25
49393;BME280;35268;42.642;23.308;2023-12-20T09:30:02;93721.13;;;2.25;78.32
49393;BME280;35268;42.642;23.308;2023-12-20T09:32:29;93724.81;;;2.34;77.80
49393;BME280;35268;42.642;23.308;2023-12-20T09:34:54;93718.75;;;2.39;77.50
49393;BME280;35268;42.642;23.308;2023-12-20T09:37:20;93723.47;;;2.47;77.67
49393;BME280;35268;42.642;23.308;2023-12-20T09:39:45;93714.00;;;2.51;77.22
49393;BME280;35268;42.642;23.308;2023-12-20T09:42:11;93713.97;;;2.61;77.13
49393;BME280;35268;42.642;23.308;2023-12-20T09:44:42;93704.22;;;2.62;77.00
49393;BME280;35268;42.642;23.308;2023-12-20T09:47:09;93694.50;;;2.63;76.87
49393;BME280;35268;42.642;23.308;2023-12-20T09:49:36;93697.66;;;2.65;77.44
49393;BME280;35268;42.642;23.308;2023-12-20T09:52:04;93690.00;;;2.73;77.15
49393;BME280;35268;42.642;23.308;2023-12-20T09:54:31;93691.78;;;2.88;76.66
49393;BME280;35268;42.642;23.308;2023-12-20T09:56:57;93683.59;;;3.00;76.20
49393;BME280;35268;42.642;23.308;2023-12-20T09:59:22;93694.41;;;2.93;76.62
49393;BME280;35268;42.642;23.308;2023-12-20T10:01:48;93696.72;;;3.10;76.38
49393;BME280;35268;42.642;23.308;2023-12-20T10:04:13;93676.63;;;3.30;76.01
49393;BME280;35268;42.642;23.308;2023-12-20T10:06:43;93686.22;;;3.50;75.40
49393;BME280;35268;42.642;23.308;2023-12-20T10:09:11;93672.38;;;3.73;74.29
49393;BME280;35268;42.642;23.308;2023-12-20T10:11:38;93666.28;;;3.78;72.13
49393;BME280;35268;42.642;23.308;2023-12-20T10:14:04;93664.72;;;3.77;71.50
49393;BME280;35268;42.642;23.308;2023-12-20T10:16:31;93652.91;;;3.69;73.25
49393;BME280;35268;42.642;23.308;2023-12-20T10:18:58;93668.16;;;3.72;72.45
49393;BME280;35268;42.642;23.308;2023-12-20T10:21:23;93655.56;;;3.64;71.85
49393;BME280;35268;42.642;23.308;2023-12-20T10:23:52;93645.16;;;3.49;72.83
49393;BME280;35268;42.642;23.308;2023-12-20T10:26:24;93644.06;;;3.55;73.85
49393;BME280;35268;42.642;23.308;2023-12-20T10:28:55;93640.00;;;3.68;72.52
49393;BME280;35268;42.642;23.308;2023-12-20T10:31:34;93622.84;;;3.70;72.84
49393;BME280;35268;42.642;23.308;2023-12-20T10:34:01;93623.59;;;3.76;73.00
49393;BME280;35268;42.642;23.308;2023-12-20T10:36:29;93616.47;;;3.76;72.74
49393;BME280;35268;42.642;23.308;2023-12-20T10:38:56;93622.31;;;3.73;73.27
49393;BME280;35268;42.642;23.308;2023-12-20T10:41:28;93616.47;;;3.76;73.15
49393;BME280;35268;42.642;23.308;2023-12-20T10:44:04;93609.06;;;3.78;72.91
49393;BME280;35268;42.642;23.308;2023-12-20T10:46:33;93598.53;;;3.78;72.92
49393;BME280;35268;42.642;23.308;2023-12-20T10:49:02;93612.78;;;3.77;72.73
49393;BME280;35268;42.642;23.308;2023-12-20T10:51:27;93590.09;;;3.76;73.70
49393;BME280;35268;42.642;23.308;2023-12-20T10:53:55;93589.66;;;3.69;73.39
49393;BME280;35268;42.642;23.308;2023-12-20T10:56:22;93592.31;;;3.64;74.08
49393;BME280;35268;42.642;23.308;2023-12-20T10:58:49;93596.03;;;3.63;73.89
49393;BME280;35268;42.642;23.308;2023-12-20T11:01:16;93589.66;;;3.69;74.05
49393;BME280;35268;42.642;23.308;2023-12-20T11:03:51;93581.22;;;3.67;74.47
49393;BME280;35268;42.642;23.308;2023-12-20T11:14:17;93567.53;;;3.94;74.23
49393;BME280;35268;42.642;23.308;2023-12-20T11:16:45;93559.91;;;3.93;74.22
49393;BME280;35268;42.642;23.308;2023-12-20T11:19:11;93558.41;;;4.11;74.17
49393;BME280;35268;42.642;23.308;2023-12-20T11:21:39;93552.72;;;4.28;72.95
49393;BME280;35268;42.642;23.308;2023-12-20T11:24:05;93552.28;;;4.39;72.28
49393;BME280;35268;42.642;23.308;2023-12-20T11:26:31;93536.06;;;4.51;71.85
49393;BME280;35268;42.642;23.308;2023-12-20T11:29:58;93529.09;;;4.60;71.18
49393;BME280;35268;42.642;23.308;2023-12-20T11:34:55;93503.56;;;4.94;68.98
49393;BME280;35268;42.642;23.308;2023-12-20T11:37:21;93518.00;;;5.01;69.31
49393;BME280;35268;42.642;23.308;2023-12-20T11:40:06;93507.41;;;5.20;69.34
49393;BME280;35268;42.642;23.308;2023-12-20T11:42:43;93501.97;;;5.31;68.28
49393;BME280;35268;42.642;23.308;2023-12-20T11:45:10;93500.53;;;5.38;68.16
49393;BME280;35268;42.642;23.308;2023-12-20T11:47:36;93496.56;;;5.55;68.27
49393;BME280;35268;42.642;23.308;2023-12-20T11:50:01;93490.66;;;5.44;67.52
49393;BME280;35268;42.642;23.308;2023-12-20T11:52:29;93483.38;;;5.69;67.50
49393;BME280;35268;42.642;23.308;2023-12-20T11:54:55;93479.28;;;5.90;67.36
49393;BME280;35268;42.642;23.308;2023-12-20T11:57:20;93471.31;;;6.09;66.63
49393;BME280;35268;42.642;23.308;2023-12-20T11:59:47;93467.78;;;6.28;66.42
49393;BME280;35268;42.642;23.308;2023-12-20T12:02:12;93450.31;;;6.40;65.83
49393;BME280;35268;42.642;23.308;2023-12-20T12:04:41;93445.47;;;6.56;66.05
49393;BME280;35268;42.642;23.308;2023-12-20T12:07:06;93446.63;;;6.78;65.89
49393;BME280;35268;42.642;23.308;2023-12-20T12:09:32;93441.94;;;6.97;64.33
49393;BME280;35268;42.642;23.308;2023-12-20T12:11:58;93437.97;;;7.09;63.40
49393;BME280;35268;42.642;23.308;2023-12-20T12:14:24;93424.34;;;7.24;63.44
49393;BME280;35268;42.642;23.308;2023-12-20T12:16:49;93421.19;;;7.44;63.26
49393;BME280;35268;42.642;23.308;2023-12-20T12:19:26;93429.84;;;7.59;62.27
49393;BME280;35268;42.642;23.308;2023-12-20T12:22:10;93412.22;;;7.63;62.19
49393;BME280;35268;42.642;23.308;2023-12-20T12:24:39;93424.28;;;7.69;62.71
49393;BME280;35268;42.642;23.308;2023-12-20T12:27:08;93419.50;;;7.80;62.45
49393;BME280;35268;42.642;23.308;2023-12-20T12:29:34;93409.88;;;7.93;62.26
49393;BME280;35268;42.642;23.308;2023-12-20T12:32:00;93415.38;;;8.05;62.05
49393;BME280;35268;42.642;23.308;2023-12-20T12:34:28;93405.09;;;8.12;61.59
49393;BME280;35268;42.642;23.308;2023-12-20T12:36:54;93401.84;;;8.24;61.36
49393;BME280;35268;42.642;23.308;2023-12-20T12:39:19;93414.03;;;8.34;61.16
49393;BME280;35268;42.642;23.308;2023-12-20T12:41:44;93413.31;;;8.42;60.40
49393;BME280;35268;42.642;23.308;2023-12-20T12:44:10;93418.16;;;8.49;58.91
49393;BME280;35268;42.642;23.308;2023-12-20T12:46:35;93411.91;;;8.44;58.56
49393;BME280;35268;42.642;23.308;2023-12-20T12:49:01;93408.91;;;8.29;58.81
49393;BME280;35268;42.642;23.308;2023-12-20T12:51:26;93406.00;;;7.99;59.24
49393;BME280;35268;42.642;23.308;2023-12-20T12:53:52;93408.09;;;7.79;60.00
49393;BME280;35268;42.642;23.308;2023-12-20T12:56:18;93402.25;;;7.60;60.55
49393;BME280;35268;42.642;23.308;2023-12-20T12:58:43;93405.63;;;7.52;60.87
49393;BME280;35268;42.642;23.308;2023-12-20T13:01:09;93407.16;;;7.44;61.31
49393;BME280;35268;42.642;23.308;2023-12-20T13:03:35;93403.31;;;7.28;62.01